sensor_id;sensor_type;location;lat;lon;timestamp;pressure;altitude;pressure_sealevel;temperature;humidity
56658;BME280;42530;52.240;19.354;2022-10-16T00:00:17;53044.56;;;-144.69;46.44
56658;BME280;42530;52.240;19.354;2022-10-16T00:02:43;53071.59;;;-144.69;46.56
56658;BME280;42530;52.240;19.354;2022-10-16T00:05:08;53030.00;;;-144.69;46.49
56658;BME280;42530;52.240;19.354;2022-10-16T00:07:34;53090.31;;;-144.69;46.83
56658;BME280;42530;52.240;19.354;2022-10-16T00:09:59;53063.28;;;-144.69;46.21
56658;BME280;42530;52.240;19.354;2022-10-16T00:12:25;53036.22;;;-144.69;46.60
56658;BME280;42530;52.240;19.354;2022-10-16T00:14:51;53048.72;;;-144.69;46.00
56658;BME280;42530;52.240;19.354;2022-10-16T00:17:16;53069.53;;;-144.69;46.13
56658;BME280;42530;52.240;19.354;2022-10-16T00:19:41;53079.91;;;-144.69;46.49
56658;BME280;42530;52.240;19.354;2022-10-16T00:22:07;53052.88;;;-144.69;46.56
56658;BME280;42530;52.240;19.354;2022-10-16T00:24:32;53079.91;;;-144.69;46.77
56658;BME280;42530;52.240;19.354;2022-10-16T00:26:58;53036.22;;;-144.69;47.07
56658;BME280;42530;52.240;19.354;2022-10-16T00:29:24;53073.69;;;-144.69;47.06
56658;BME280;42530;52.240;19.354;2022-10-16T00:31:49;53086.16;;;-144.69;47.42
56658;BME280;42530;52.240;19.354;2022-10-16T00:34:15;53027.91;;;-144.69;46.90
56658;BME280;42530;52.240;19.354;2022-10-16T00:36:40;53067.44;;;-144.69;46.65
56658;BME280;42530;52.240;19.354;2022-10-16T00:39:06;53082.00;;;-144.69;46.75
56658;BME280;42530;52.240;19.354;2022-10-16T00:41:32;53077.84;;;-144.69;46.97
56658;BME280;42530;52.240;19.354;2022-10-16T00:44:00;53067.44;;;-144.69;47.05
56658;BME280;42530;52.240;19.354;2022-10-16T00:49:16;53069.53;;;-144.69;47.67
56658;BME280;42530;52.240;19.354;2022-10-16T00:51:51;53050.78;;;-144.69;46.93
56658;BME280;42530;52.240;19.354;2022-10-16T00:54:27;53063.28;;;-144.69;46.92
56658;BME280;42530;52.240;19.354;2022-10-16T00:56:53;53094.47;;;-144.69;47.50
56658;BME280;42530;52.240;19.354;2022-10-16T00:59:25;53057.03;;;-144.69;47.67
56658;BME280;42530;52.240;19.354;2022-10-16T01:01:52;53052.88;;;-144.69;47.46
56658;BME280;42530;52.240;19.354;2022-10-16T01:04:18;53069.53;;;-144.69;47.88
56658;BME280;42530;52.240;19.354;2022-10-16T01:09:27;53063.28;;;-144.69;48.18
56658;BME280;42530;52.240;19.354;2022-10-16T01:12:10;53023.75;;;-144.69;48.25
56658;BME280;42530;52.240;19.354;2022-10-16T01:14:47;53073.69;;;-144.69;47.99
56658;BME280;42530;52.240;19.354;2022-10-16T01:17:41;53046.63;;;-144.69;47.97
56658;BME280;42530;52.240;19.354;2022-10-16T01:23:24;53063.28;;;-144.69;47.72
56658;BME280;42530;52.240;19.354;2022-10-16T01:26:08;53106.97;;;-144.69;48.29
56658;BME280;42530;52.240;19.354;2022-10-16T01:31:13;53090.31;;;-144.69;48.63
56658;BME280;42530;52.240;19.354;2022-10-16T01:33:48;53052.88;;;-144.69;48.58
56658;BME280;42530;52.240;19.354;2022-10-16T01:36:16;53073.69;;;-144.69;48.20
56658;BME280;42530;52.240;19.354;2022-10-16T01:38:47;53075.75;;;-144.69;48.19
56658;BME280;42530;52.240;19.354;2022-10-16T01:41:22;53073.69;;;-144.69;48.47
56658;BME280;42530;52.240;19.354;2022-10-16T01:46:24;53104.88;;;-144.69;48.79
56658;BME280;42530;52.240;19.354;2022-10-16T01:48:51;53102.81;;;-144.69;48.86
56658;BME280;42530;52.240;19.354;2022-10-16T01:51:19;53086.16;;;-144.69;49.24
56658;BME280;42530;52.240;19.354;2022-10-16T01:53:53;53088.25;;;-144.69;49.17
56658;BME280;42530;52.240;19.354;2022-10-16T01:56:20;53065.34;;;-144.69;48.59
56658;BME280;42530;52.240;19.354;2022-10-16T01:58:52;53063.28;;;-144.69;48.43
56658;BME280;42530;52.240;19.354;2022-10-16T02:01:22;53113.22;;;-144.69;48.95
56658;BME280;42530;52.240;19.354;2022-10-16T02:03:53;53082.00;;;-144.69;49.15
56658;BME280;42530;52.240;19.354;2022-10-16T02:06:19;53088.25;;;-144.69;49.19
56658;BME280;42530;52.240;19.354;2022-10-16T02:08:46;53073.69;;;-144.69;49.20
56658;BME280;42530;52.240;19.354;2022-10-16T02:11:11;53057.03;;;-144.69;49.52
56658;BME280;42530;52.240;19.354;2022-10-16T02:13:50;53094.47;;;-144.69;49.17
56658;BME280;42530;52.240;19.354;2022-10-16T02:16:16;53115.28;;;-144.69;49.56
56658;BME280;42530;52.240;19.354;2022-10-16T02:18:43;53079.91;;;-144.69;49.68
56658;BME280;42530;52.240;19.354;2022-10-16T02:21:40;53065.34;;;-144.69;49.31
56658;BME280;42530;52.240;19.354;2022-10-16T02:24:14;53044.56;;;-144.69;49.48
56658;BME280;42530;52.240;19.354;2022-10-16T02:26:54;53082.00;;;-144.69;48.93
56658;BME280;42530;52.240;19.354;2022-10-16T02:29:25;53086.16;;;-144.69;49.52
56658;BME280;42530;52.240;19.354;2022-10-16T02:31:56;53096.56;;;-144.69;49.33
56658;BME280;42530;52.240;19.354;2022-10-16T02:34:25;53057.03;;;-144.69;49.61
56658;BME280;42530;52.240;19.354;2022-10-16T02:36:52;53052.88;;;-144.69;49.86
56658;BME280;42530;52.240;19.354;2022-10-16T02:39:19;53061.19;;;-144.69;49.82
56658;BME280;42530;52.240;19.354;2022-10-16T02:41:45;53077.84;;;-144.69;49.59
56658;BME280;42530;52.240;19.354;2022-10-16T02:44:11;53071.59;;;-144.69;49.04
56658;BME280;42530;52.240;19.354;2022-10-16T02:46:36;53104.88;;;-144.69;48.71
56658;BME280;42530;52.240;19.354;2022-10-16T02:49:02;53057.03;;;-144.69;49.45
56658;BME280;42530;52.240;19.354;2022-10-16T02:51:27;53057.03;;;-144.69;49.06
56658;BME280;42530;52.240;19.354;2022-10-16T02:53:53;53067.44;;;-144.69;48.87
56658;BME280;42530;52.240;19.354;2022-10-16T02:56:19;53073.69;;;-144.69;48.98
56658;BME280;42530;52.240;19.354;2022-10-16T02:58:44;53094.47;;;-144.69;49.14
56658;BME280;42530;52.240;19.354;2022-10-16T03:01:10;53067.44;;;-144.69;48.72
56658;BME280;42530;52.240;19.354;2022-10-16T03:03:37;53092.41;;;-144.69;48.69
56658;BME280;42530;52.240;19.354;2022-10-16T03:06:03;53090.31;;;-144.69;48.45
56658;BME280;42530;52.240;19.354;2022-10-16T03:08:28;53075.75;;;-144.69;48.46
56658;BME280;42530;52.240;19.354;2022-10-16T03:10:54;53088.25;;;-144.69;48.65
56658;BME280;42530;52.240;19.354;2022-10-16T03:13:20;53100.72;;;-144.69;48.33
56658;BME280;42530;52.240;19.354;2022-10-16T03:15:46;53040.41;;;-144.69;48.57
56658;BME280;42530;52.240;19.354;2022-10-16T03:18:11;53092.41;;;-144.69;48.27
56658;BME280;42530;52.240;19.354;2022-10-16T03:20:37;53036.22;;;-144.69;48.52
56658;BME280;42530;52.240;19.354;2022-10-16T03:23:02;53075.75;;;-144.69;48.70
56658;BME280;42530;52.240;19.354;2022-10-16T03:25:28;53069.53;;;-144.69;49.18
56658;BME280;42530;52.240;19.354;2022-10-16T03:27:54;53073.69;;;-144.69;49.06
56658;BME280;42530;52.240;19.354;2022-10-16T03:30:19;53115.28;;;-144.69;48.55
56658;BME280;42530;52.240;19.354;2022-10-16T03:32:45;53090.31;;;-144.69;48.45
56658;BME280;42530;52.240;19.354;2022-10-16T03:35:10;53071.59;;;-144.69;48.85
56658;BME280;42530;52.240;19.354;2022-10-16T03:37:36;53071.59;;;-144.69;49.02
56658;BME280;42530;52.240;19.354;2022-10-16T03:40:03;53113.22;;;-144.69;48.89
56658;BME280;42530;52.240;19.354;2022-10-16T03:42:28;53134.00;;;-144.69;48.87
56658;BME280;42530;52.240;19.354;2022-10-16T03:44:54;53098.66;;;-144.69;49.19
56658;BME280;42530;52.240;19.354;2022-10-16T03:47:19;53102.81;;;-144.69;49.13
56658;BME280;42530;52.240;19.354;2022-10-16T03:49:48;53094.47;;;-144.69;49.16
56658;BME280;42530;52.240;19.354;2022-10-16T03:52:13;53077.84;;;-144.69;48.81
56658;BME280;42530;52.240;19.354;2022-10-16T03:54:39;53057.03;;;-144.69;48.83
56658;BME280;42530;52.240;19.354;2022-10-16T03:57:04;53096.56;;;-144.69;48.33
56658;BME280;42530;52.240;19.354;2022-10-16T03:59:30;53077.84;;;-144.69;48.35
56658;BME280;42530;52.240;19.354;2022-10-16T04:01:56;53104.88;;;-144.69;47.98
56658;BME280;42530;52.240;19.354;2022-10-16T04:04:21;53052.88;;;-144.69;48.15
56658;BME280;42530;52.240;19.354;2022-10-16T04:06:47;53063.28;;;-144.69;48.47
56658;BME280;42530;52.240;19.354;2022-10-16T04:09:13;53079.91;;;-144.69;48.20
56658;BME280;42530;52.240;19.354;2022-10-16T04:11:38;53065.34;;;-144.69;47.96
56658;BME280;42530;52.240;19.354;2022-10-16T04:14:04;53067.44;;;-144.69;48.06
56658;BME280;42530;52.240;19.354;2022-10-16T04:16:29;53073.69;;;-144.69;48.13
56658;BME280;42530;52.240;19.354;2022-10-16T04:18:55;53075.75;;;-144.69;48.06
56658;BME280;42530;52.240;19.354;2022-10-16T04:21:21;53077.84;;;-144.69;47.74
56658;BME280;42530;52.240;19.354;2022-10-16T04:23:46;53100.72;;;-144.69;48.14
56658;BME280;42530;52.240;19.354;2022-10-16T04:26:12;53086.16;;;-144.69;47.90
56658;BME280;42530;52.240;19.354;2022-10-16T04:28:37;53065.34;;;-144.69;47.83
56658;BME280;42530;52.240;19.354;2022-10-16T04:31:06;53069.53;;;-144.69;47.62
56658;BME280;42530;52.240;19.354;2022-10-16T04:33:32;53065.34;;;-144.69;47.83
56658;BME280;42530;52.240;19.354;2022-10-16T04:35:59;53050.78;;;-144.69;47.09
56658;BME280;42530;52.240;19.354;2022-10-16T04:38:25;53098.66;;;-144.69;47.72
56658;BME280;42530;52.240;19.354;2022-10-16T04:40:52;53073.69;;;-144.69;47.52
56658;BME280;42530;52.240;19.354;2022-10-16T04:43:18;53104.88;;;-144.69;47.38
56658;BME280;42530;52.240;19.354;2022-10-16T04:45:44;53102.81;;;-144.69;47.51
56658;BME280;42530;52.240;19.354;2022-10-16T04:48:09;53057.03;;;-144.69;47.79
56658;BME280;42530;52.240;19.354;2022-10-16T04:50:35;53079.91;;;-144.69;47.03
56658;BME280;42530;52.240;19.354;2022-10-16T04:53:01;53036.22;;;-144.69;47.02
56658;BME280;42530;52.240;19.354;2022-10-16T04:55:26;53069.53;;;-144.69;47.04
56658;BME280;42530;52.240;19.354;2022-10-16T04:57:52;53032.06;;;-144.69;47.15
56658;BME280;42530;52.240;19.354;2022-10-16T05:00:17;53090.31;;;-144.69;48.06
56658;BME280;42530;52.240;19.354;2022-10-16T05:02:43;53061.19;;;-144.69;48.27
56658;BME280;42530;52.240;19.354;2022-10-16T05:05:08;53077.84;;;-144.69;48.28
56658;BME280;42530;52.240;19.354;2022-10-16T05:07:34;53044.56;;;-144.69;48.31
56658;BME280;42530;52.240;19.354;2022-10-16T05:09:59;53104.88;;;-144.69;48.54
56658;BME280;42530;52.240;19.354;2022-10-16T05:12:25;53067.44;;;-144.69;47.91
56658;BME280;42530;52.240;19.354;2022-10-16T05:14:50;53061.19;;;-144.69;47.79
56658;BME280;42530;52.240;19.354;2022-10-16T05:17:16;53098.66;;;-144.69;48.12
56658;BME280;42530;52.240;19.354;2022-10-16T05:19:41;53044.56;;;-144.69;48.29
56658;BME280;42530;52.240;19.354;2022-10-16T05:22:07;53067.44;;;-144.69;47.64
56658;BME280;42530;52.240;19.354;2022-10-16T05:24:32;53102.81;;;-144.69;47.40
56658;BME280;42530;52.240;19.354;2022-10-16T05:26:58;53082.00;;;-144.69;47.63
56658;BME280;42530;52.240;19.354;2022-10-16T05:29:24;53034.16;;;-144.69;47.13
56658;BME280;42530;52.240;19.354;2022-10-16T05:31:51;53082.00;;;-144.69;47.72
56658;BME280;42530;52.240;19.354;2022-10-16T05:34:17;53113.22;;;-144.69;47.35
56658;BME280;42530;52.240;19.354;2022-10-16T05:36:42;53098.66;;;-144.69;46.67
56658;BME280;42530;52.240;19.354;2022-10-16T05:39:11;53061.19;;;-144.69;46.48
56658;BME280;42530;52.240;19.354;2022-10-16T05:41:36;53079.91;;;-144.69;46.77
56658;BME280;42530;52.240;19.354;2022-10-16T05:44:05;53079.91;;;-144.69;48.06
56658;BME280;42530;52.240;19.354;2022-10-16T05:46:32;53071.59;;;-144.69;48.17
56658;BME280;42530;52.240;19.354;2022-10-16T05:48:57;53082.00;;;-144.69;47.13
56658;BME280;42530;52.240;19.354;2022-10-16T05:51:23;53100.72;;;-144.69;47.43
56658;BME280;42530;52.240;19.354;2022-10-16T05:53:49;53077.84;;;-144.69;47.38
56658;BME280;42530;52.240;19.354;2022-10-16T05:56:15;53096.56;;;-144.69;48.12
56658;BME280;42530;52.240;19.354;2022-10-16T05:58:41;53090.31;;;-144.69;48.01
56658;BME280;42530;52.240;19.354;2022-10-16T06:01:10;53106.97;;;-144.69;47.29
56658;BME280;42530;52.240;19.354;2022-10-16T06:03:36;53071.59;;;-144.69;47.06
56658;BME280;42530;52.240;19.354;2022-10-16T06:06:14;53119.44;;;-144.69;47.37
56658;BME280;42530;52.240;19.354;2022-10-16T06:08:41;53082.00;;;-144.69;46.74
56658;BME280;42530;52.240;19.354;2022-10-16T06:11:08;53098.66;;;-144.69;46.54
56658;BME280;42530;52.240;19.354;2022-10-16T06:13:34;53104.88;;;-144.69;46.07
56658;BME280;42530;52.240;19.354;2022-10-16T06:16:01;53057.03;;;-144.69;45.51
56658;BME280;42530;52.240;19.354;2022-10-16T06:18:28;53102.81;;;-144.69;45.09
56658;BME280;42530;52.240;19.354;2022-10-16T06:20:54;53077.84;;;-144.69;46.05
56658;BME280;42530;52.240;19.354;2022-10-16T06:23:20;53063.28;;;-144.69;45.37
56658;BME280;42530;52.240;19.354;2022-10-16T06:25:46;53073.69;;;-144.69;45.83
56658;BME280;42530;52.240;19.354;2022-10-16T06:28:13;53086.16;;;-144.69;45.67
56658;BME280;42530;52.240;19.354;2022-10-16T06:30:39;53106.97;;;-144.69;45.21
56658;BME280;42530;52.240;19.354;2022-10-16T06:33:04;53115.28;;;-144.69;45.61
56658;BME280;42530;52.240;19.354;2022-10-16T06:35:30;53069.53;;;-144.69;45.75
56658;BME280;42530;52.240;19.354;2022-10-16T06:37:57;53129.84;;;-144.69;44.70
56658;BME280;42530;52.240;19.354;2022-10-16T06:40:23;53111.13;;;-144.69;45.44
56658;BME280;42530;52.240;19.354;2022-10-16T06:42:48;53065.34;;;-144.69;45.79
56658;BME280;42530;52.240;19.354;2022-10-16T06:45:14;53090.31;;;-144.69;45.73
56658;BME280;42530;52.240;19.354;2022-10-16T06:47:39;53075.75;;;-144.69;45.92
56658;BME280;42530;52.240;19.354;2022-10-16T06:50:05;53077.84;;;-144.69;45.84
56658;BME280;42530;52.240;19.354;2022-10-16T06:52:33;53069.53;;;-144.69;46.35
56658;BME280;42530;52.240;19.354;2022-10-16T06:54:59;53069.53;;;-144.69;45.66
56658;BME280;42530;52.240;19.354;2022-10-16T06:57:25;53088.25;;;-144.69;45.53
56658;BME280;42530;52.240;19.354;2022-10-16T06:59:50;53082.00;;;-144.69;45.30
56658;BME280;42530;52.240;19.354;2022-10-16T07:02:16;53113.22;;;-144.69;44.75
56658;BME280;42530;52.240;19.354;2022-10-16T07:04:41;53109.06;;;-144.69;45.31
56658;BME280;42530;52.240;19.354;2022-10-16T07:07:07;53115.28;;;-144.69;43.91
56658;BME280;42530;52.240;19.354;2022-10-16T07:09:32;53086.16;;;-144.69;43.68
56658;BME280;42530;52.240;19.354;2022-10-16T07:11:58;53057.03;;;-144.69;42.56
56658;BME280;42530;52.240;19.354;2022-10-16T07:14:23;53086.16;;;-144.69;42.82
56658;BME280;42530;52.240;19.354;2022-10-16T07:16:49;53104.88;;;-144.69;43.03
56658;BME280;42530;52.240;19.354;2022-10-16T07:19:14;53069.53;;;-144.69;42.45
56658;BME280;42530;52.240;19.354;2022-10-16T07:21:42;53079.91;;;-144.69;43.30
56658;BME280;42530;52.240;19.354;2022-10-16T07:24:13;53094.47;;;-144.69;43.38
56658;BME280;42530;52.240;19.354;2022-10-16T07:26:40;53073.69;;;-144.69;42.70
56658;BME280;42530;52.240;19.354;2022-10-16T07:29:20;53077.84;;;-144.69;42.76
56658;BME280;42530;52.240;19.354;2022-10-16T07:31:47;53109.06;;;-144.69;42.93
56658;BME280;42530;52.240;19.354;2022-10-16T07:34:14;53098.66;;;-144.69;42.92
56658;BME280;42530;52.240;19.354;2022-10-16T07:36:41;53090.31;;;-144.69;42.55
56658;BME280;42530;52.240;19.354;2022-10-16T07:39:06;53059.13;;;-144.69;42.12
56658;BME280;42530;52.240;19.354;2022-10-16T07:41:32;53082.00;;;-144.69;42.92
56658;BME280;42530;52.240;19.354;2022-10-16T07:44:02;53117.38;;;-144.69;42.88
56658;BME280;42530;52.240;19.354;2022-10-16T07:46:28;53094.47;;;-144.69;42.89
56658;BME280;42530;52.240;19.354;2022-10-16T07:48:54;53113.22;;;-144.69;42.60
56658;BME280;42530;52.240;19.354;2022-10-16T07:51:21;53111.13;;;-144.69;42.03
56658;BME280;42530;52.240;19.354;2022-10-16T07:53:47;53111.13;;;-144.69;42.81
56658;BME280;42530;52.240;19.354;2022-10-16T07:56:13;53094.47;;;-144.69;42.77
56658;BME280;42530;52.240;19.354;2022-10-16T07:58:40;53069.53;;;-144.69;42.65
56658;BME280;42530;52.240;19.354;2022-10-16T08:01:11;53111.13;;;-144.69;42.79
56658;BME280;42530;52.240;19.354;2022-10-16T08:03:41;53086.16;;;-144.69;42.28
56658;BME280;42530;52.240;19.354;2022-10-16T08:06:07;53102.81;;;-144.69;43.01
56658;BME280;42530;52.240;19.354;2022-10-16T08:08:32;53115.28;;;-144.69;42.30
56658;BME280;42530;52.240;19.354;2022-10-16T08:10:58;53077.84;;;-144.69;42.37
56658;BME280;42530;52.240;19.354;2022-10-16T08:13:24;53069.53;;;-144.69;42.18
56658;BME280;42530;52.240;19.354;2022-10-16T08:15:49;53111.13;;;-144.69;42.99
56658;BME280;42530;52.240;19.354;2022-10-16T08:18:15;53102.81;;;-144.69;42.04
56658;BME280;42530;52.240;19.354;2022-10-16T08:20:41;53077.84;;;-144.69;41.61
56658;BME280;42530;52.240;19.354;2022-10-16T08:23:09;53086.16;;;-144.69;41.66
56658;BME280;42530;52.240;19.354;2022-10-16T08:25:36;53075.75;;;-144.69;40.68
56658;BME280;42530;52.240;19.354;2022-10-16T08:28:07;53044.56;;;-144.69;40.87
56658;BME280;42530;52.240;19.354;2022-10-16T08:30:33;53090.31;;;-144.69;41.54
56658;BME280;42530;52.240;19.354;2022-10-16T08:33:00;53065.34;;;-144.69;40.72
56658;BME280;42530;52.240;19.354;2022-10-16T08:35:25;53111.13;;;-144.69;40.81
56658;BME280;42530;52.240;19.354;2022-10-16T08:37:50;53119.44;;;-144.69;41.27
56658;BME280;42530;52.240;19.354;2022-10-16T08:40:20;53102.81;;;-144.69;40.28
56658;BME280;42530;52.240;19.354;2022-10-16T08:48:45;53131.94;;;-144.69;36.44
56658;BME280;42530;52.240;19.354;2022-10-16T08:51:26;53069.53;;;-144.69;36.78
56658;BME280;42530;52.240;19.354;2022-10-16T08:53:57;53111.13;;;-144.69;36.53
56658;BME280;42530;52.240;19.354;2022-10-16T08:56:25;53113.22;;;-144.69;36.57
56658;BME280;42530;52.240;19.354;2022-10-16T08:58:52;53113.22;;;-144.69;37.12
56658;BME280;42530;52.240;19.354;2022-10-16T09:01:20;53115.28;;;-144.69;35.83
56658;BME280;42530;52.240;19.354;2022-10-16T09:17:30;53065.34;;;-144.69;35.89
56658;BME280;42530;52.240;19.354;2022-10-16T09:22:45;53094.47;;;-144.69;36.68
56658;BME280;42530;52.240;19.354;2022-10-16T09:25:14;53094.47;;;-144.69;34.94
56658;BME280;42530;52.240;19.354;2022-10-16T09:27:40;53127.78;;;-144.69;35.91
56658;BME280;42530;52.240;19.354;2022-10-16T09:30:17;53136.09;;;-144.69;34.63
56658;BME280;42530;52.240;19.354;2022-10-16T09:32:44;53090.31;;;-144.69;35.20
56658;BME280;42530;52.240;19.354;2022-10-16T09:35:13;53131.94;;;-144.69;33.51
56658;BME280;42530;52.240;19.354;2022-10-16T09:37:40;53131.94;;;-144.69;33.90
56658;BME280;42530;52.240;19.354;2022-10-16T09:40:34;53065.34;;;-144.69;32.67
56658;BME280;42530;52.240;19.354;2022-10-16T09:43:27;53094.47;;;-144.69;31.55
56658;BME280;42530;52.240;19.354;2022-10-16T09:46:21;53136.09;;;-144.69;32.79
56658;BME280;42530;52.240;19.354;2022-10-16T09:48:49;53102.81;;;-144.69;32.40
56658;BME280;42530;52.240;19.354;2022-10-16T09:53:57;53098.66;;;-144.69;34.90
56658;BME280;42530;52.240;19.354;2022-10-16T09:56:34;53082.00;;;-144.69;35.00
56658;BME280;42530;52.240;19.354;2022-10-16T09:59:11;53117.38;;;-144.69;36.51
56658;BME280;42530;52.240;19.354;2022-10-16T10:01:40;53100.72;;;-144.69;36.27
56658;BME280;42530;52.240;19.354;2022-10-16T10:04:07;53096.56;;;-144.69;36.13
56658;BME280;42530;52.240;19.354;2022-10-16T10:06:53;53096.56;;;-144.69;34.10
56658;BME280;42530;52.240;19.354;2022-10-16T10:09:25;53077.84;;;-144.69;35.79
56658;BME280;42530;52.240;19.354;2022-10-16T10:11:52;53090.31;;;-144.69;36.04
56658;BME280;42530;52.240;19.354;2022-10-16T10:16:46;53071.59;;;-144.69;35.94
56658;BME280;42530;52.240;19.354;2022-10-16T10:19:22;53123.63;;;-144.69;36.58
56658;BME280;42530;52.240;19.354;2022-10-16T10:21:50;53092.41;;;-144.69;35.20
56658;BME280;42530;52.240;19.354;2022-10-16T10:24:17;53100.72;;;-144.69;36.17
56658;BME280;42530;52.240;19.354;2022-10-16T10:27:06;53075.75;;;-144.69;34.43
56658;BME280;42530;52.240;19.354;2022-10-16T10:32:58;53092.41;;;-144.69;34.92
56658;BME280;42530;52.240;19.354;2022-10-16T10:35:42;53119.44;;;-144.69;34.81
56658;BME280;42530;52.240;19.354;2022-10-16T10:44:16;53077.84;;;-144.69;33.88
56658;BME280;42530;52.240;19.354;2022-10-16T10:46:58;53090.31;;;-144.69;34.55
56658;BME280;42530;52.240;19.354;2022-10-16T10:55:08;53092.41;;;-144.69;34.00
56658;BME280;42530;52.240;19.354;2022-10-16T11:08:45;53075.75;;;-144.69;33.57
56658;BME280;42530;52.240;19.354;2022-10-16T11:11:20;53061.19;;;-144.69;33.56
56658;BME280;42530;52.240;19.354;2022-10-16T11:13:58;53109.06;;;-144.69;33.02
56658;BME280;42530;52.240;19.354;2022-10-16T11:16:28;53138.19;;;-144.69;31.58
56658;BME280;42530;52.240;19.354;2022-10-16T11:18:57;53125.69;;;-144.69;31.92
56658;BME280;42530;52.240;19.354;2022-10-16T11:21:24;53069.53;;;-144.69;31.03
56658;BME280;42530;52.240;19.354;2022-10-16T11:26:42;53131.94;;;-144.69;29.40
56658;BME280;42530;52.240;19.354;2022-10-16T11:29:30;53121.53;;;-144.69;28.76
56658;BME280;42530;52.240;19.354;2022-10-16T11:32:00;53079.91;;;-144.69;27.95
56658;BME280;42530;52.240;19.354;2022-10-16T11:34:32;53082.00;;;-144.69;26.98
56658;BME280;42530;52.240;19.354;2022-10-16T11:37:09;53096.56;;;-144.69;26.53
56658;BME280;42530;52.240;19.354;2022-10-16T11:39:38;53084.09;;;-144.69;26.99
56658;BME280;42530;52.240;19.354;2022-10-16T11:42:27;53063.28;;;-144.69;28.11
56658;BME280;42530;52.240;19.354;2022-10-16T11:48:04;53067.44;;;-144.69;29.22
56658;BME280;42530;52.240;19.354;2022-10-16T11:50:50;53052.88;;;-144.69;29.49
56658;BME280;42530;52.240;19.354;2022-10-16T11:55:49;53036.22;;;-144.69;33.49
56658;BME280;42530;52.240;19.354;2022-10-16T12:00:57;53073.69;;;-144.69;35.61
56658;BME280;42530;52.240;19.354;2022-10-16T12:09:00;53057.03;;;-144.69;37.37
56658;BME280;42530;52.240;19.354;2022-10-16T12:13:52;53063.28;;;-144.69;37.19
56658;BME280;42530;52.240;19.354;2022-10-16T12:16:28;53048.72;;;-144.69;37.78
56658;BME280;42530;52.240;19.354;2022-10-16T12:19:24;53075.75;;;-144.69;37.93
56658;BME280;42530;52.240;19.354;2022-10-16T12:21:51;53075.75;;;-144.69;38.51
56658;BME280;42530;52.240;19.354;2022-10-16T12:24:36;53032.06;;;-144.69;38.73
56658;BME280;42530;52.240;19.354;2022-10-16T12:27:05;53054.97;;;-144.69;38.29
56658;BME280;42530;52.240;19.354;2022-10-16T12:29:38;53065.34;;;-144.69;38.28
56658;BME280;42530;52.240;19.354;2022-10-16T12:32:22;53025.84;;;-144.69;36.83
56658;BME280;42530;52.240;19.354;2022-10-16T12:34:50;53042.47;;;-144.69;37.17
56658;BME280;42530;52.240;19.354;2022-10-16T12:37:29;53034.16;;;-144.69;37.27
56658;BME280;42530;52.240;19.354;2022-10-16T12:39:58;53079.91;;;-144.69;36.24
56658;BME280;42530;52.240;19.354;2022-10-16T12:44:53;53067.44;;;-144.69;36.69
56658;BME280;42530;52.240;19.354;2022-10-16T12:49:55;53057.03;;;-144.69;36.99
56658;BME280;42530;52.240;19.354;2022-10-16T12:52:38;53044.56;;;-144.69;36.28
56658;BME280;42530;52.240;19.354;2022-10-16T12:55:05;53065.34;;;-144.69;36.07
56658;BME280;42530;52.240;19.354;2022-10-16T13:00:28;53069.53;;;-144.69;36.44
56658;BME280;42530;52.240;19.354;2022-10-16T13:18:02;53050.78;;;-144.69;36.92
56658;BME280;42530;52.240;19.354;2022-10-16T13:20:34;53077.84;;;-144.69;37.20
56658;BME280;42530;52.240;19.354;2022-10-16T13:23:09;53054.97;;;-144.69;37.54
56658;BME280;42530;52.240;19.354;2022-10-16T13:28:32;53021.66;;;-144.69;37.61
56658;BME280;42530;52.240;19.354;2022-10-16T13:30:59;53048.72;;;-144.69;37.43
56658;BME280;42530;52.240;19.354;2022-10-16T13:33:37;53038.31;;;-144.69;36.74
56658;BME280;42530;52.240;19.354;2022-10-16T13:36:05;53065.34;;;-144.69;37.96
56658;BME280;42530;52.240;19.354;2022-10-16T13:38:33;53061.19;;;-144.69;37.73
56658;BME280;42530;52.240;19.354;2022-10-16T13:41:05;53073.69;;;-144.69;37.79
56658;BME280;42530;52.240;19.354;2022-10-16T13:43:39;53038.31;;;-144.69;37.87
56658;BME280;42530;52.240;19.354;2022-10-16T13:46:10;53063.28;;;-144.69;38.02
56658;BME280;42530;52.240;19.354;2022-10-16T13:48:37;53023.75;;;-144.69;38.42
56658;BME280;42530;52.240;19.354;2022-10-16T13:51:10;53021.66;;;-144.69;38.17
56658;BME280;42530;52.240;19.354;2022-10-16T13:53:36;53042.47;;;-144.69;38.26
56658;BME280;42530;52.240;19.354;2022-10-16T13:56:04;53061.19;;;-144.69;38.49
56658;BME280;42530;52.240;19.354;2022-10-16T13:58:30;53052.88;;;-144.69;38.71
56658;BME280;42530;52.240;19.354;2022-10-16T14:01:02;53046.63;;;-144.69;38.94
56658;BME280;42530;52.240;19.354;2022-10-16T14:03:29;53042.47;;;-144.69;38.96
56658;BME280;42530;52.240;19.354;2022-10-16T14:05:59;53050.78;;;-144.69;38.97
56658;BME280;42530;52.240;19.354;2022-10-16T14:08:27;53025.84;;;-144.69;39.08
56658;BME280;42530;52.240;19.354;2022-10-16T14:10:55;53019.59;;;-144.69;38.58
56658;BME280;42530;52.240;19.354;2022-10-16T14:15:53;53048.72;;;-144.69;38.77
56658;BME280;42530;52.240;19.354;2022-10-16T14:18:23;53086.16;;;-144.69;39.20
56658;BME280;42530;52.240;19.354;2022-10-16T14:20:50;53065.34;;;-144.69;39.12
56658;BME280;42530;52.240;19.354;2022-10-16T14:23:30;53050.78;;;-144.69;39.59
56658;BME280;42530;52.240;19.354;2022-10-16T14:28:34;53034.16;;;-144.69;39.15
56658;BME280;42530;52.240;19.354;2022-10-16T14:31:01;53046.63;;;-144.69;39.12
56658;BME280;42530;52.240;19.354;2022-10-16T14:36:13;53044.56;;;-144.69;39.10
56658;BME280;42530;52.240;19.354;2022-10-16T14:38:57;53057.03;;;-144.69;39.24